Terminal Aerodrome Forecast
Issued by NWS

Home | Current Version | Previous Version | Text Only | Print | Product List | Glossary On
Versions: 1 2 3 4 5 6 7 8 9 10 11 12 13 14
000
FTUS45 KTFX 181100
TAFBZN
TAF
KBZN 181132Z 1812/1912 VRB06KT P6SM SCT040 OVC060
      TEMPO 1812/1816 -SHRA BKN030
     FM181600 26010KT P6SM BKN060
     FM182000 29018G25KT P6SM VCSH BKN060
     FM190100 31006KT P6SM SKC
     FM190500 VRB06KT P6SM SKC=

USA.gov is the U.S. government's official web portal to all federal, state and local government web resources and services.